08:48
Airports
History
Links
Donate
Help keep this website running!
PayPal
Bitcoin
This page is community maintained. The information is intended for PC simulator navigation or reference.
Always use approved charts for navigation.
SSKG
ESTANCIA SANTA MARIA
ESTANCIA SANTA MARIA (SSKG)
Campo Grande, Mato Grosso do Sul, Brazil (79044)
(U)
Lat/Lng:20° 30' 19.14" S / 54° 31' 31.85" W
-20.505317 / -54.525513
Elevation:2028'ft / 618mMSL
ID / ICAO:SSKG
Runways:1
Longest:06-24
Asphalt 1,110m / 3,643ft
Nearby Weather08:00 GMT 2018-01-20
Nearby weather at SBCG, Campo Grande located 9.8 nautical miles from SSKG
Altimeter: 29.91
Visibility: 6.2 statute miles
Wind: 7 knots (from 140°)
Temp: 21°c / 70°f
Humidity: 94.0%

METAR: SBCG 200800Z 14007KT 9999 FEW040 SCT100 21/20 Q1013

(Powered by phpweather)
Runway 06 / 24
Dimensions:1110.4 x 22.9m 3643' x 75'ft
Surface:Asphalt
Runway 06 [A]Runway 24 [B]
Heading:049°TH 229°TH
Lat:
Lng:
20° 30' 30.8"S
54° 31' 46.51"W
20° 30' 7.48"S
54° 31' 17.18"W
User Notes and Comments
20° 30' 19.14" S / 54° 31' 31.85" W
Distance To
Airport ID:
Nearby Airports
(U) SITIO POUSO DO AVIADOR 3.0 NM
SSAY ENE 67°
(C) Teruel Ipanema Estancia 8.2 NM
SSIE SW 217°
(C) Campo Grande 9.8 NM
SBCG ( WX ) WNW 284°
4 Fazenda Sao Jose 13.2 NM
SIEF WSW 249°
4 Fazenda Planalto 13.4 NM
SDTS NNE 32°
4 Estancia Ema 15.0 NM
SSCS WSW 238°
4 Fazenda Estancia Regina 19.5 NM
SIQD WSW 241°
VFR Chart
Flight Planning at SkyVector.com